createdAt,value
2019-03-21T00:02:53.367Z,33.47
2019-03-21T00:07:56.920Z,33.30
2019-03-21T00:13:00.530Z,33.07
2019-03-21T00:18:08.225Z,33.54
2019-03-21T00:23:11.754Z,34.80
2019-03-21T00:28:15.360Z,35.82
2019-03-21T00:33:18.895Z,36.24
2019-03-21T00:38:22.466Z,35.91
2019-03-21T00:43:26.002Z,35.01
2019-03-21T00:48:29.604Z,35.72
2019-03-21T00:53:33.182Z,35.89
2019-03-21T00:58:37.273Z,33.45
2019-03-21T01:03:40.811Z,31.78
2019-03-21T01:08:44.415Z,29.35
2019-03-21T01:13:48.267Z,29.35
2019-03-21T01:18:51.871Z,29.00
2019-03-21T01:23:55.436Z,29.47
2019-03-21T01:28:59.041Z,29.98
2019-03-21T01:34:02.602Z,30.40
2019-03-21T01:39:07.087Z,30.78
2019-03-21T01:44:10.615Z,30.78
2019-03-21T01:49:14.201Z,31.36
2019-03-21T01:54:17.766Z,31.59
2019-03-21T01:59:21.378Z,32.30
2019-03-21T02:04:24.934Z,33.20
2019-03-21T02:09:28.508Z,33.53
2019-03-21T02:14:32.070Z,34.17
2019-03-21T02:19:35.668Z,34.94
2019-03-21T02:24:39.207Z,34.67
2019-03-21T02:29:42.827Z,35.96
2019-03-21T02:34:46.365Z,35.99
2019-03-21T02:39:59.516Z,34.43
2019-03-21T02:45:07.566Z,36.45
2019-03-21T02:50:00.542Z,34.92
2019-03-21T02:55:05.075Z,36.61
2019-03-21T03:00:17.778Z,35.56
2019-03-21T03:05:24.114Z,33.27
2019-03-21T03:10:36.734Z,32.57
2019-03-21T03:15:41.092Z,32.15
2019-03-21T03:20:44.938Z,31.53
2019-03-21T03:25:50.963Z,30.55
2019-03-21T03:30:56.011Z,30.15
2019-03-21T03:35:59.567Z,29.97
2019-03-21T03:41:14.399Z,30.06
2019-03-21T03:46:17.956Z,30.41
2019-03-21T03:51:21.559Z,30.41
2019-03-21T03:56:25.098Z,30.28
2019-03-21T04:01:28.683Z,29.89
2019-03-21T04:06:32.210Z,29.52
2019-03-21T04:11:36.184Z,29.02
2019-03-21T04:16:39.721Z,27.87
2019-03-21T04:21:43.320Z,27.69
2019-03-21T04:26:46.949Z,27.51
2019-03-21T04:31:50.523Z,27.15
2019-03-21T04:36:54.092Z,26.61
2019-03-21T04:41:57.681Z,26.56
2019-03-21T04:47:01.233Z,27.04
2019-03-21T04:52:04.800Z,26.95
2019-03-21T04:57:08.334Z,26.65
2019-03-21T05:02:12.006Z,26.58
2019-03-21T05:07:15.571Z,25.91
2019-03-21T05:12:19.149Z,26.11
2019-03-21T05:17:22.713Z,25.94
2019-03-21T05:22:26.279Z,26.10
2019-03-21T05:27:29.827Z,25.91
2019-03-21T05:32:33.439Z,25.60
2019-03-21T05:37:36.998Z,25.47
2019-03-21T05:42:40.985Z,27.41
2019-03-21T05:47:44.531Z,26.84
2019-03-21T05:52:48.174Z,27.17
2019-03-21T05:57:51.725Z,25.97
2019-03-21T06:02:55.321Z,27.20
2019-03-21T06:08:11.257Z,27.14
2019-03-21T06:13:14.821Z,27.34
2019-03-21T06:18:40.991Z,27.40
2019-03-21T06:24:04.620Z,27.55
2019-03-21T06:29:08.174Z,27.29
2019-03-21T06:34:12.072Z,27.33
2019-03-21T06:39:15.629Z,26.99
2019-03-21T06:44:19.209Z,27.35
2019-03-21T06:49:22.761Z,26.86
2019-03-21T06:54:26.336Z,26.79
2019-03-21T06:59:29.948Z,28.47
2019-03-21T07:04:33.520Z,28.47
2019-03-21T07:09:37.044Z,28.39
2019-03-21T07:14:40.632Z,28.87
2019-03-21T07:19:44.169Z,29.18
2019-03-21T07:24:48.193Z,29.81
2019-03-21T07:29:51.729Z,30.24
2019-03-21T07:34:55.337Z,30.72
2019-03-21T07:39:58.870Z,31.49
2019-03-21T07:45:02.444Z,32.28
2019-03-21T07:50:08.989Z,33.32
2019-03-21T07:55:13.535Z,33.41
2019-03-21T08:00:18.195Z,33.40
2019-03-21T08:05:21.843Z,33.46
2019-03-21T08:10:25.402Z,32.74
2019-03-21T08:15:28.973Z,32.90
2019-03-21T08:20:32.511Z,32.30
2019-03-21T08:25:36.088Z,31.59
2019-03-21T08:30:42.766Z,30.36
2019-03-21T08:35:46.663Z,29.49
2019-03-21T08:40:50.220Z,29.22
2019-03-21T08:45:53.784Z,28.24
2019-03-21T08:51:07.640Z,28.50
2019-03-21T08:56:02.617Z,29.20
2019-03-21T09:01:06.171Z,29.46
2019-03-21T09:06:09.757Z,29.71
2019-03-21T09:11:13.284Z,29.82
2019-03-21T09:16:16.994Z,30.09
2019-03-21T09:21:20.617Z,30.20
2019-03-21T09:26:24.188Z,30.24
2019-03-21T09:31:27.750Z,29.59
2019-03-21T09:36:31.360Z,30.12
2019-03-21T09:41:35.129Z,29.88
2019-03-21T09:46:50.171Z,29.38
2019-03-21T09:51:45.170Z,29.15
2019-03-21T09:56:48.779Z,28.66
2019-03-21T10:01:54.389Z,28.96
2019-03-21T10:06:57.636Z,29.16
2019-03-21T10:12:01.166Z,29.30
2019-03-21T10:17:04.928Z,29.46
2019-03-21T10:22:08.485Z,29.60
2019-03-21T10:27:12.085Z,29.67
2019-03-21T10:32:15.620Z,29.72
2019-03-21T10:37:19.265Z,29.76
2019-03-21T10:42:22.825Z,29.84
2019-03-21T10:47:26.437Z,29.91
2019-03-21T10:52:29.956Z,29.96
2019-03-21T10:57:33.550Z,29.90
2019-03-21T11:02:37.085Z,30.11
2019-03-21T11:07:40.680Z,30.34
2019-03-21T11:12:44.204Z,30.42
2019-03-21T11:17:47.797Z,30.60
2019-03-21T11:22:51.364Z,30.69
2019-03-21T11:27:54.967Z,31.17
2019-03-21T11:32:58.517Z,33.37
2019-03-21T11:38:02.128Z,34.55
2019-03-21T11:43:07.459Z,34.50
2019-03-21T11:48:11.079Z,35.23
2019-03-21T11:53:14.625Z,35.00
2019-03-21T11:58:18.229Z,34.85
2019-03-21T12:03:24.228Z,35.25
2019-03-21T12:08:27.096Z,34.17
2019-03-21T12:13:30.631Z,34.13
2019-03-21T12:18:34.250Z,33.66
2019-03-21T12:23:37.833Z,33.19
2019-03-21T12:28:41.384Z,31.98
2019-03-21T12:33:44.983Z,31.07
2019-03-21T12:38:48.540Z,30.64
2019-03-21T12:43:52.083Z,29.64
2019-03-21T12:48:55.884Z,29.87
2019-03-21T12:53:59.446Z,29.79
2019-03-21T12:59:03.064Z,29.60
2019-03-21T13:04:06.626Z,30.08
2019-03-21T13:09:10.222Z,30.38
2019-03-21T13:14:13.768Z,31.63
2019-03-21T13:19:17.348Z,32.86
2019-03-21T13:24:20.916Z,33.08
2019-03-21T13:29:25.222Z,31.72
2019-03-21T13:34:28.960Z,32.22
2019-03-21T13:39:32.619Z,32.18
2019-03-21T13:44:36.217Z,31.91
2019-03-21T13:49:39.813Z,32.85
2019-03-21T13:54:43.658Z,33.36
2019-03-21T13:59:47.496Z,33.60
2019-03-21T14:04:51.020Z,33.21
2019-03-21T14:09:54.656Z,33.66
2019-03-21T14:14:58.216Z,33.41
2019-03-21T14:20:01.827Z,33.47
2019-03-21T14:25:06.903Z,33.29
2019-03-21T14:30:12.883Z,32.85
2019-03-21T14:35:16.434Z,32.35
2019-03-21T14:40:20.011Z,32.08
2019-03-21T14:45:23.571Z,32.14
2019-03-21T14:50:27.143Z,32.35
2019-03-21T14:55:30.725Z,32.38
2019-03-21T15:00:34.489Z,32.01
2019-03-21T15:05:40.422Z,32.10
2019-03-21T15:10:44.020Z,31.31
2019-03-21T15:15:47.563Z,30.79
2019-03-21T15:20:51.244Z,30.50
2019-03-21T15:25:57.296Z,30.47
2019-03-21T15:31:01.903Z,31.30
2019-03-21T15:36:05.665Z,31.72
2019-03-21T15:41:09.184Z,31.89
2019-03-21T15:46:12.781Z,32.17
2019-03-21T15:51:16.331Z,32.47
2019-03-21T15:56:19.852Z,32.62
2019-03-21T16:01:23.444Z,32.98
2019-03-21T16:06:26.975Z,32.97
2019-03-21T16:11:30.560Z,33.41
2019-03-21T16:16:34.092Z,33.51
2019-03-21T16:21:37.645Z,33.67
2019-03-21T16:26:41.191Z,33.46
2019-03-21T16:31:44.782Z,32.73
2019-03-21T16:36:48.367Z,31.07
2019-03-21T16:41:51.953Z,30.11
2019-03-21T16:46:55.545Z,29.62
2019-03-21T16:51:59.101Z,29.30
2019-03-21T16:57:02.727Z,29.26
2019-03-21T17:02:06.294Z,28.79
2019-03-21T17:07:09.874Z,28.75
2019-03-21T17:12:13.492Z,28.71
2019-03-21T17:17:17.018Z,29.06
2019-03-21T17:22:20.602Z,29.20
2019-03-21T17:27:24.246Z,29.66
2019-03-21T17:32:27.822Z,30.38
2019-03-21T17:37:39.850Z,31.12
2019-03-21T17:42:44.822Z,31.55
2019-03-21T17:47:49.485Z,32.06
2019-03-21T17:53:00.872Z,32.45
2019-03-21T17:58:08.768Z,32.90
2019-03-21T18:03:12.498Z,33.18
2019-03-21T18:08:16.050Z,33.19
2019-03-21T18:13:19.597Z,33.44
2019-03-21T18:18:24.185Z,33.71
2019-03-21T18:23:28.971Z,33.88
2019-03-21T18:28:34.303Z,33.26
2019-03-21T18:33:42.750Z,32.40
2019-03-21T18:38:57.451Z,30.80
2019-03-21T18:43:51.604Z,29.34
2019-03-21T18:48:55.203Z,29.34
2019-03-21T18:53:58.834Z,28.04
2019-03-21T18:59:02.438Z,28.19
2019-03-21T19:04:06.031Z,28.53
2019-03-21T19:09:09.586Z,28.33
2019-03-21T19:14:13.184Z,28.79
2019-03-21T19:19:16.751Z,29.24
2019-03-21T19:24:20.422Z,29.32
2019-03-21T19:29:23.954Z,29.97
2019-03-21T19:34:27.597Z,30.82
2019-03-21T19:39:31.156Z,31.46
2019-03-21T19:44:36.275Z,32.16
2019-03-21T19:49:45.084Z,33.30
2019-03-21T19:54:49.444Z,33.30
2019-03-21T19:59:54.107Z,33.34
2019-03-21T20:04:59.236Z,33.55
2019-03-21T20:10:03.470Z,33.40
2019-03-21T20:15:10.190Z,32.98
2019-03-21T20:20:16.817Z,32.63
2019-03-21T20:25:20.443Z,32.81
2019-03-21T20:30:23.975Z,32.88
2019-03-21T20:35:27.547Z,32.94
2019-03-21T20:40:31.148Z,33.23
2019-03-21T20:45:34.726Z,33.67
2019-03-21T20:50:38.274Z,33.98
2019-03-21T20:55:53.203Z,37.89
2019-03-21T21:00:47.204Z,38.32
2019-03-21T21:05:50.781Z,35.75
2019-03-21T21:10:54.313Z,39.70
2019-03-21T21:15:58.248Z,36.93
2019-03-21T21:21:01.851Z,41.02
2019-03-21T21:26:06.059Z,38.16
2019-03-21T21:31:09.723Z,39.69
2019-03-21T21:36:21.551Z,39.28
2019-03-21T21:41:18.526Z,39.99
2019-03-21T21:46:22.484Z,38.59
2019-03-21T21:51:26.167Z,36.29
2019-03-21T21:56:29.853Z,34.78
2019-03-21T22:01:33.439Z,33.96
2019-03-21T22:06:36.996Z,33.52
2019-03-21T22:11:40.580Z,33.33
2019-03-21T22:16:44.131Z,32.83
2019-03-21T22:21:47.760Z,33.14
2019-03-21T22:26:51.336Z,31.38
2019-03-21T22:31:54.939Z,31.92
2019-03-21T22:36:58.500Z,31.92
2019-03-21T22:42:02.087Z,31.73
2019-03-21T22:47:05.672Z,31.97
2019-03-21T22:52:09.199Z,32.37
2019-03-21T22:57:12.780Z,32.72
2019-03-21T23:02:16.716Z,32.84
2019-03-21T23:07:20.269Z,32.73
2019-03-21T23:12:23.906Z,32.29
2019-03-21T23:17:27.464Z,31.42
2019-03-21T23:22:31.012Z,30.36
2019-03-21T23:27:34.621Z,30.18
2019-03-21T23:32:38.145Z,30.24
2019-03-21T23:37:41.699Z,30.51
2019-03-21T23:42:45.306Z,30.67
2019-03-21T23:47:48.865Z,30.39
2019-03-21T23:52:52.454Z,30.57
2019-03-21T23:57:56.013Z,30.76
